DLH4873 EDDF-EGKK
Flight info
| Callsign | DLH4873 |
|---|---|
| Flight time | 1h 20m |
| Altitude | 34000 |
| Route | SOBRA2L/18 SOBRA Y180 BITBU Y181 DEMUL M624 BUB L608 DENUT L610 TEBRA |
| Aircraft | A320/M-SDE3FGHIRWY/LB1 |
Departure
| Time | 2026-05-07 21:50 |
|---|---|
| Airport | Frankfurt Main Airport (EDDF) |
Arrival
| Time | 2026-05-07 23:10 |
|---|---|
| Airport | London Gatwick Airport (EGKK) |
| Time | Latitude | Longitude | Altitude | Speed | Heading |
|---|---|---|---|---|---|
| 2026-05-07 21:02 | 50.04701 | 8.57088 | 346 ft | 0 kts | 112° |
| 2026-05-07 21:35 | 50.04701 | 8.57087 | 346 ft | 2 kts | 112° |
| 2026-05-07 21:35 | 50.04711 | 8.57051 | 348 ft | 4 kts | 117° |
| 2026-05-07 21:35 | 50.04726 | 8.57021 | 350 ft | 2 kts | 149° |
| 2026-05-07 21:36 | 50.04747 | 8.57007 | 356 ft | 4 kts | 185° |
| 2026-05-07 21:36 | 50.04771 | 8.57017 | 352 ft | 2 kts | 202° |
| 2026-05-07 21:36 | 50.04772 | 8.57018 | 352 ft | 0 kts | 202° |
| 2026-05-07 21:39 | 50.04756 | 8.57007 | 353 ft | 7 kts | 202° |
| 2026-05-07 21:39 | 50.04696 | 8.56966 | 347 ft | 9 kts | 204° |
| 2026-05-07 21:40 | 50.04638 | 8.56927 | 352 ft | 9 kts | 200° |
| 2026-05-07 21:40 | 50.04584 | 8.56903 | 346 ft | 8 kts | 193° |
| 2026-05-07 21:40 | 50.04534 | 8.56884 | 346 ft | 7 kts | 193° |
| 2026-05-07 21:40 | 50.04489 | 8.56867 | 346 ft | 6 kts | 194° |
| 2026-05-07 21:41 | 50.04448 | 8.56815 | 350 ft | 12 kts | 245° |
| 2026-05-07 21:41 | 50.04418 | 8.56688 | 346 ft | 12 kts | 250° |
| 2026-05-07 21:41 | 50.04390 | 8.56572 | 349 ft | 11 kts | 250° |
| 2026-05-07 21:41 | 50.04365 | 8.56468 | 350 ft | 10 kts | 249° |
| 2026-05-07 21:42 | 50.04343 | 8.56374 | 350 ft | 9 kts | 249° |
| 2026-05-07 21:42 | 50.04323 | 8.56289 | 350 ft | 8 kts | 250° |
| 2026-05-07 21:42 | 50.04304 | 8.56213 | 351 ft | 7 kts | 249° |
| 2026-05-07 21:42 | 50.04275 | 8.56089 | 349 ft | 19 kts | 251° |
| 2026-05-07 21:43 | 50.04218 | 8.55861 | 351 ft | 24 kts | 250° |
| 2026-05-07 21:43 | 50.04158 | 8.55609 | 348 ft | 26 kts | 250° |
| 2026-05-07 21:43 | 50.04095 | 8.55338 | 349 ft | 28 kts | 249° |
| 2026-05-07 21:43 | 50.04027 | 8.55054 | 348 ft | 29 kts | 250° |
| 2026-05-07 21:44 | 50.03957 | 8.54762 | 348 ft | 23 kts | 249° |
| 2026-05-07 21:44 | 50.03906 | 8.54542 | 353 ft | 22 kts | 250° |
| 2026-05-07 21:44 | 50.03845 | 8.54322 | 349 ft | 23 kts | 236° |
| 2026-05-07 21:44 | 50.03772 | 8.54095 | 349 ft | 24 kts | 248° |
| 2026-05-07 21:45 | 50.03708 | 8.53842 | 351 ft | 26 kts | 250° |
| 2026-05-07 21:45 | 50.03645 | 8.53571 | 354 ft | 25 kts | 247° |
| 2026-05-07 21:45 | 50.03596 | 8.53381 | 348 ft | 16 kts | 250° |
| 2026-05-07 21:45 | 50.03560 | 8.53231 | 348 ft | 13 kts | 250° |
| 2026-05-07 21:46 | 50.03529 | 8.53102 | 354 ft | 12 kts | 250° |
| 2026-05-07 21:46 | 50.03502 | 8.52986 | 352 ft | 11 kts | 249° |
| 2026-05-07 21:46 | 50.03476 | 8.52881 | 349 ft | 10 kts | 248° |
| 2026-05-07 21:46 | 50.03450 | 8.52789 | 347 ft | 9 kts | 246° |
| 2026-05-07 21:47 | 50.03438 | 8.52746 | 351 ft | 0 kts | 246° |
| 2026-05-07 21:47 | 50.03437 | 8.52742 | 351 ft | 3 kts | 246° |
| 2026-05-07 21:47 | 50.03415 | 8.52657 | 352 ft | 8 kts | 249° |
| 2026-05-07 21:47 | 50.03385 | 8.52596 | 349 ft | 7 kts | 203° |
| 2026-05-07 21:48 | 50.03368 | 8.52594 | 347 ft | 0 kts | 178° |
| 2026-05-07 21:49 | 50.03329 | 8.52597 | 348 ft | 21 kts | 178° |
| 2026-05-07 21:49 | 50.02888 | 8.52601 | 352 ft | 102 kts | 179° |
| 2026-05-07 21:49 | 50.01968 | 8.52613 | 350 ft | 161 kts | 179° |
| 2026-05-07 21:49 | 50.00789 | 8.52561 | 929 ft | 162 kts | 182° |
| 2026-05-07 21:50 | 49.99661 | 8.52563 | 1743 ft | 162 kts | 175° |
| 2026-05-07 21:50 | 49.98471 | 8.52655 | 2230 ft | 183 kts | 175° |
| 2026-05-07 21:50 | 49.97129 | 8.52773 | 2625 ft | 205 kts | 175° |
| 2026-05-07 21:50 | 49.95625 | 8.52901 | 3036 ft | 227 kts | 176° |
| 2026-05-07 21:51 | 49.94030 | 8.53027 | 3868 ft | 231 kts | 177° |
| 2026-05-07 21:51 | 49.92403 | 8.53147 | 4785 ft | 235 kts | 177° |
| 2026-05-07 21:51 | 49.90755 | 8.53262 | 5684 ft | 238 kts | 178° |
| 2026-05-07 21:51 | 49.89093 | 8.53375 | 6602 ft | 240 kts | 178° |
| 2026-05-07 21:52 | 49.87414 | 8.53325 | 7457 ft | 243 kts | 190° |
| 2026-05-07 21:52 | 49.85739 | 8.52615 | 7992 ft | 262 kts | 201° |
| 2026-05-07 21:52 | 49.83964 | 8.51599 | 8601 ft | 277 kts | 201° |
| 2026-05-07 21:52 | 49.82137 | 8.50555 | 9458 ft | 283 kts | 201° |
| 2026-05-07 21:53 | 49.80267 | 8.49493 | 10316 ft | 290 kts | 201° |
| 2026-05-07 21:53 | 49.78343 | 8.48211 | 10625 ft | 313 kts | 213° |
| 2026-05-07 21:53 | 49.76778 | 8.45776 | 11002 ft | 330 kts | 240° |
| 2026-05-07 21:53 | 49.76068 | 8.42394 | 11700 ft | 336 kts | 266° |
| 2026-05-07 21:54 | 49.76333 | 8.38844 | 12478 ft | 340 kts | 283° |
| 2026-05-07 21:54 | 49.76898 | 8.35291 | 13300 ft | 343 kts | 283° |
| 2026-05-07 21:54 | 49.77493 | 8.31648 | 14099 ft | 347 kts | 283° |
| 2026-05-07 21:54 | 49.78091 | 8.28009 | 14809 ft | 350 kts | 283° |
| 2026-05-07 21:55 | 49.78693 | 8.24329 | 15521 ft | 353 kts | 283° |
| 2026-05-07 21:55 | 49.79285 | 8.20677 | 16226 ft | 356 kts | 283° |
| 2026-05-07 21:55 | 49.79885 | 8.16942 | 16930 ft | 360 kts | 283° |
| 2026-05-07 21:55 | 49.80487 | 8.13165 | 17626 ft | 363 kts | 283° |
| 2026-05-07 21:56 | 49.81092 | 8.09356 | 18323 ft | 366 kts | 283° |
| 2026-05-07 21:56 | 49.81701 | 8.05511 | 18929 ft | 370 kts | 283° |
| 2026-05-07 21:56 | 49.82315 | 8.01621 | 19539 ft | 373 kts | 283° |
| 2026-05-07 21:56 | 49.82932 | 7.97705 | 20149 ft | 376 kts | 283° |
| 2026-05-07 21:57 | 49.83554 | 7.93767 | 20752 ft | 379 kts | 283° |
| 2026-05-07 21:57 | 49.84181 | 7.89777 | 21375 ft | 381 kts | 283° |
| 2026-05-07 21:57 | 49.84803 | 7.85785 | 21974 ft | 384 kts | 283° |
| 2026-05-07 21:57 | 49.85434 | 7.81733 | 22567 ft | 387 kts | 282° |
| 2026-05-07 21:58 | 49.86069 | 7.77651 | 23142 ft | 390 kts | 283° |
| 2026-05-07 21:58 | 49.86711 | 7.73562 | 23689 ft | 393 kts | 283° |
| 2026-05-07 21:58 | 49.87367 | 7.69420 | 24149 ft | 396 kts | 283° |
| 2026-05-07 21:58 | 49.88019 | 7.65274 | 24606 ft | 399 kts | 283° |
| 2026-05-07 21:59 | 49.88674 | 7.61072 | 25051 ft | 401 kts | 283° |
| 2026-05-07 21:59 | 49.89325 | 7.56861 | 25490 ft | 403 kts | 282° |
| 2026-05-07 21:59 | 49.89976 | 7.52619 | 25914 ft | 405 kts | 282° |
| 2026-05-07 21:59 | 49.90628 | 7.48345 | 26340 ft | 407 kts | 282° |
| 2026-05-07 22:00 | 49.91278 | 7.44059 | 26754 ft | 410 kts | 282° |
| 2026-05-07 22:00 | 49.91929 | 7.39760 | 27161 ft | 412 kts | 282° |
| 2026-05-07 22:00 | 49.92579 | 7.35466 | 27566 ft | 414 kts | 282° |
| 2026-05-07 22:00 | 49.93242 | 7.31101 | 27959 ft | 416 kts | 282° |
| 2026-05-07 22:01 | 49.93908 | 7.26719 | 28350 ft | 418 kts | 282° |
| 2026-05-07 22:01 | 49.94578 | 7.22304 | 28715 ft | 421 kts | 282° |
| 2026-05-07 22:01 | 49.95247 | 7.17881 | 29089 ft | 422 kts | 282° |
| 2026-05-07 22:01 | 49.95916 | 7.13424 | 29452 ft | 424 kts | 282° |
| 2026-05-07 22:02 | 49.96583 | 7.08950 | 29790 ft | 426 kts | 282° |
| 2026-05-07 22:02 | 49.97248 | 7.04467 | 30140 ft | 428 kts | 282° |
| 2026-05-07 22:02 | 49.97918 | 6.99932 | 30402 ft | 430 kts | 282° |
| 2026-05-07 22:02 | 49.98586 | 6.95413 | 30663 ft | 432 kts | 282° |
| 2026-05-07 22:03 | 49.99122 | 6.90810 | 30923 ft | 433 kts | 275° |
| 2026-05-07 22:03 | 49.99231 | 6.87708 | 31087 ft | 433 kts | 269° |
| 2026-05-07 22:03 | 49.99118 | 6.83027 | 31326 ft | 435 kts | 267° |
| 2026-05-07 22:03 | 49.98976 | 6.78337 | 31656 ft | 434 kts | 267° |
| 2026-05-07 22:04 | 49.98834 | 6.73658 | 32001 ft | 432 kts | 267° |
| 2026-05-07 22:04 | 49.98691 | 6.69002 | 32349 ft | 431 kts | 267° |
| 2026-05-07 22:04 | 49.98548 | 6.64337 | 32681 ft | 431 kts | 267° |
| 2026-05-07 22:04 | 49.98404 | 6.59696 | 33014 ft | 430 kts | 267° |
| 2026-05-07 22:05 | 49.98261 | 6.55068 | 33353 ft | 429 kts | 267° |
| 2026-05-07 22:05 | 49.98117 | 6.50450 | 33694 ft | 428 kts | 266° |
| 2026-05-07 22:05 | 49.97971 | 6.45880 | 34005 ft | 428 kts | 266° |
| 2026-05-07 22:05 | 49.97819 | 6.41206 | 34082 ft | 425 kts | 266° |
| 2026-05-07 22:06 | 49.97519 | 6.32099 | 34091 ft | 421 kts | 266° |
| 2026-05-07 22:06 | 49.97217 | 6.23013 | 34089 ft | 421 kts | 266° |
| 2026-05-07 22:07 | 49.96906 | 6.13938 | 34092 ft | 420 kts | 266° |
| 2026-05-07 22:07 | 49.96641 | 6.04871 | 34090 ft | 421 kts | 273° |
| 2026-05-07 22:08 | 49.97226 | 6.00426 | 34092 ft | 423 kts | 288° |
| 2026-05-07 22:08 | 49.98478 | 5.96282 | 34095 ft | 425 kts | 299° |
| 2026-05-07 22:08 | 50.02219 | 5.89151 | 34089 ft | 429 kts | 314° |
| 2026-05-07 22:09 | 50.06491 | 5.82661 | 34089 ft | 430 kts | 313° |
| 2026-05-07 22:09 | 50.10781 | 5.76168 | 34092 ft | 430 kts | 314° |
| 2026-05-07 22:10 | 50.15094 | 5.69687 | 34097 ft | 431 kts | 314° |
| 2026-05-07 22:10 | 50.19407 | 5.63194 | 34097 ft | 431 kts | 314° |
| 2026-05-07 22:11 | 50.23705 | 5.56689 | 34104 ft | 431 kts | 314° |
| 2026-05-07 22:11 | 50.28010 | 5.50165 | 34101 ft | 431 kts | 314° |
| 2026-05-07 22:12 | 50.32308 | 5.43635 | 34105 ft | 431 kts | 314° |
| 2026-05-07 22:12 | 50.36601 | 5.37085 | 34112 ft | 431 kts | 314° |
| 2026-05-07 22:13 | 50.40895 | 5.30515 | 34115 ft | 431 kts | 313° |
| 2026-05-07 22:13 | 50.45181 | 5.23944 | 34115 ft | 431 kts | 314° |
| 2026-05-07 22:14 | 50.49466 | 5.17359 | 34117 ft | 431 kts | 313° |
| 2026-05-07 22:14 | 50.53742 | 5.10755 | 34115 ft | 431 kts | 313° |
| 2026-05-07 22:15 | 50.58015 | 5.04155 | 34117 ft | 431 kts | 313° |
| 2026-05-07 22:15 | 50.62259 | 4.97578 | 34109 ft | 431 kts | 313° |
| 2026-05-07 22:16 | 50.66548 | 4.90913 | 34110 ft | 430 kts | 313° |
| 2026-05-07 22:16 | 50.70779 | 4.84319 | 34112 ft | 430 kts | 313° |
| 2026-05-07 22:17 | 50.75041 | 4.77658 | 34121 ft | 430 kts | 313° |
| 2026-05-07 22:17 | 50.79319 | 4.70972 | 34125 ft | 430 kts | 313° |
| 2026-05-07 22:18 | 50.85662 | 4.61019 | 34129 ft | 430 kts | 313° |
| 2026-05-07 22:19 | 50.89834 | 4.54259 | 34126 ft | 428 kts | 307° |
| 2026-05-07 22:19 | 50.93087 | 4.46432 | 34130 ft | 426 kts | 300° |
| 2026-05-07 22:20 | 50.96159 | 4.38401 | 34126 ft | 426 kts | 300° |
| 2026-05-07 22:20 | 50.99235 | 4.30370 | 34125 ft | 426 kts | 300° |
| 2026-05-07 22:21 | 51.02305 | 4.22333 | 34120 ft | 426 kts | 300° |
| 2026-05-07 22:21 | 51.05365 | 4.14286 | 34118 ft | 426 kts | 300° |
| 2026-05-07 22:22 | 51.08429 | 4.06208 | 34112 ft | 426 kts | 300° |
| 2026-05-07 22:22 | 51.11481 | 3.98142 | 34105 ft | 426 kts | 300° |
| 2026-05-07 22:23 | 51.14530 | 3.90058 | 34083 ft | 426 kts | 300° |
| 2026-05-07 22:23 | 51.17569 | 3.81962 | 34094 ft | 426 kts | 299° |
| 2026-05-07 22:24 | 51.20588 | 3.73867 | 34087 ft | 426 kts | 299° |
| 2026-05-07 22:24 | 51.23394 | 3.65550 | 34096 ft | 424 kts | 290° |
| 2026-05-07 22:25 | 51.24849 | 3.56537 | 34098 ft | 423 kts | 281° |
| 2026-05-07 22:25 | 51.26074 | 3.47299 | 34102 ft | 423 kts | 281° |
| 2026-05-07 22:26 | 51.27283 | 3.38171 | 34100 ft | 423 kts | 281° |
| 2026-05-07 22:26 | 51.28480 | 3.28931 | 34110 ft | 422 kts | 281° |
| 2026-05-07 22:27 | 51.29647 | 3.19732 | 34113 ft | 422 kts | 281° |
| 2026-05-07 22:27 | 51.30813 | 3.10519 | 34123 ft | 422 kts | 281° |
| 2026-05-07 22:28 | 51.31965 | 3.01379 | 34117 ft | 422 kts | 281° |
| 2026-05-07 22:28 | 51.33122 | 2.92190 | 34120 ft | 422 kts | 281° |
| 2026-05-07 22:28 | 51.33701 | 2.87574 | 33816 ft | 422 kts | 280° |
| 2026-05-07 22:29 | 51.34276 | 2.82943 | 32713 ft | 428 kts | 280° |
| 2026-05-07 22:29 | 51.34849 | 2.78299 | 32236 ft | 420 kts | 280° |
| 2026-05-07 22:29 | 51.35413 | 2.73744 | 31632 ft | 416 kts | 280° |
| 2026-05-07 22:29 | 51.35975 | 2.69218 | 31017 ft | 413 kts | 280° |
| 2026-05-07 22:30 | 51.36532 | 2.64729 | 30404 ft | 410 kts | 280° |
| 2026-05-07 22:30 | 51.37082 | 2.60270 | 29747 ft | 407 kts | 280° |
| 2026-05-07 22:30 | 51.37624 | 2.55832 | 29157 ft | 403 kts | 280° |
| 2026-05-07 22:30 | 51.38159 | 2.51455 | 28567 ft | 398 kts | 280° |
| 2026-05-07 22:31 | 51.38681 | 2.47138 | 28002 ft | 394 kts | 280° |
| 2026-05-07 22:31 | 51.39200 | 2.42840 | 27431 ft | 390 kts | 280° |
| 2026-05-07 22:31 | 51.39714 | 2.38603 | 26865 ft | 387 kts | 280° |
| 2026-05-07 22:31 | 51.40225 | 2.34383 | 26310 ft | 384 kts | 280° |
| 2026-05-07 22:32 | 51.40731 | 2.30189 | 25776 ft | 382 kts | 280° |
| 2026-05-07 22:32 | 51.41228 | 2.26037 | 25252 ft | 379 kts | 280° |
| 2026-05-07 22:32 | 51.41726 | 2.21903 | 24726 ft | 377 kts | 280° |
| 2026-05-07 22:32 | 51.42229 | 2.17805 | 24216 ft | 374 kts | 280° |
| 2026-05-07 22:33 | 51.42732 | 2.13730 | 23745 ft | 372 kts | 280° |
| 2026-05-07 22:33 | 51.43227 | 2.09683 | 23210 ft | 369 kts | 280° |
| 2026-05-07 22:33 | 51.43709 | 2.05668 | 22742 ft | 364 kts | 280° |
| 2026-05-07 22:33 | 51.44184 | 2.01716 | 22294 ft | 359 kts | 280° |
| 2026-05-07 22:34 | 51.44655 | 1.97804 | 21844 ft | 356 kts | 280° |
| 2026-05-07 22:34 | 51.45117 | 1.93920 | 21392 ft | 352 kts | 280° |
| 2026-05-07 22:34 | 51.45571 | 1.90082 | 20939 ft | 349 kts | 280° |
| 2026-05-07 22:34 | 51.46016 | 1.86279 | 20472 ft | 346 kts | 280° |
| 2026-05-07 22:35 | 51.46459 | 1.82492 | 20010 ft | 344 kts | 280° |
| 2026-05-07 22:35 | 51.46895 | 1.78728 | 19528 ft | 343 kts | 280° |
| 2026-05-07 22:35 | 51.47328 | 1.74961 | 19053 ft | 342 kts | 280° |
| 2026-05-07 22:35 | 51.47756 | 1.71221 | 18558 ft | 341 kts | 280° |
| 2026-05-07 22:36 | 51.48184 | 1.67476 | 18053 ft | 341 kts | 280° |
| 2026-05-07 22:36 | 51.48502 | 1.63726 | 17569 ft | 338 kts | 272° |
| 2026-05-07 22:36 | 51.48374 | 1.59970 | 17078 ft | 336 kts | 261° |
| 2026-05-07 22:36 | 51.47798 | 1.56356 | 16624 ft | 335 kts | 250° |
| 2026-05-07 22:37 | 51.46989 | 1.52862 | 16158 ft | 333 kts | 250° |
| 2026-05-07 22:37 | 51.46180 | 1.49380 | 15690 ft | 332 kts | 250° |
| 2026-05-07 22:37 | 51.45376 | 1.45913 | 15227 ft | 331 kts | 250° |
| 2026-05-07 22:37 | 51.44575 | 1.42451 | 14763 ft | 330 kts | 250° |
| 2026-05-07 22:38 | 51.43595 | 1.39144 | 14293 ft | 330 kts | 238° |
| 2026-05-07 22:38 | 51.42181 | 1.36251 | 13925 ft | 330 kts | 225° |
| 2026-05-07 22:38 | 51.40408 | 1.33894 | 13705 ft | 333 kts | 217° |
| 2026-05-07 22:38 | 51.38540 | 1.31682 | 13452 ft | 333 kts | 217° |
| 2026-05-07 22:39 | 51.36686 | 1.29486 | 13223 ft | 332 kts | 217° |
| 2026-05-07 22:39 | 51.34852 | 1.27318 | 12988 ft | 331 kts | 217° |
| 2026-05-07 22:39 | 51.32979 | 1.25102 | 12744 ft | 330 kts | 217° |
| 2026-05-07 22:39 | 51.31131 | 1.22913 | 12508 ft | 329 kts | 217° |
| 2026-05-07 22:40 | 51.29292 | 1.20741 | 12273 ft | 328 kts | 217° |
| 2026-05-07 22:40 | 51.27458 | 1.18581 | 12040 ft | 328 kts | 217° |
| 2026-05-07 22:40 | 51.25627 | 1.16428 | 11805 ft | 327 kts | 217° |
| 2026-05-07 22:40 | 51.23797 | 1.14276 | 11569 ft | 326 kts | 217° |
| 2026-05-07 22:41 | 51.21998 | 1.12161 | 11335 ft | 325 kts | 217° |
| 2026-05-07 22:41 | 51.20180 | 1.10031 | 11104 ft | 324 kts | 217° |
| 2026-05-07 22:41 | 51.18340 | 1.07876 | 10871 ft | 323 kts | 217° |
| 2026-05-07 22:41 | 51.16530 | 1.05758 | 10635 ft | 322 kts | 217° |
| 2026-05-07 22:42 | 51.14771 | 1.03703 | 10456 ft | 312 kts | 217° |
| 2026-05-07 22:42 | 51.13034 | 1.01675 | 10327 ft | 299 kts | 217° |
| 2026-05-07 22:42 | 51.11410 | 0.99780 | 10133 ft | 290 kts | 217° |
| 2026-05-07 22:42 | 51.09773 | 0.97874 | 9982 ft | 286 kts | 217° |
| 2026-05-07 22:43 | 51.08188 | 0.96028 | 9890 ft | 286 kts | 217° |
| 2026-05-07 22:43 | 51.06614 | 0.94105 | 9710 ft | 284 kts | 224° |
| 2026-05-07 22:43 | 51.05715 | 0.92539 | 9583 ft | 283 kts | 234° |
| 2026-05-07 22:43 | 51.04736 | 0.89844 | 9398 ft | 281 kts | 246° |
| 2026-05-07 22:44 | 51.03639 | 0.86120 | 9147 ft | 281 kts | 245° |
| 2026-05-07 22:44 | 51.02806 | 0.83324 | 8965 ft | 280 kts | 245° |
| 2026-05-07 22:44 | 51.02241 | 0.81437 | 8836 ft | 279 kts | 245° |
| 2026-05-07 22:44 | 51.01138 | 0.77757 | 8593 ft | 279 kts | 245° |
| 2026-05-07 22:45 | 51.00303 | 0.74982 | 8404 ft | 278 kts | 245° |
| 2026-05-07 22:45 | 50.99742 | 0.73121 | 8284 ft | 277 kts | 245° |
| 2026-05-07 22:45 | 50.98918 | 0.70385 | 8097 ft | 277 kts | 245° |
| 2026-05-07 22:45 | 50.98079 | 0.67601 | 7915 ft | 276 kts | 245° |
| 2026-05-07 22:46 | 50.97262 | 0.64885 | 7732 ft | 275 kts | 245° |
| 2026-05-07 22:46 | 50.96439 | 0.62144 | 7543 ft | 275 kts | 245° |
| 2026-05-07 22:46 | 50.95617 | 0.59412 | 7362 ft | 274 kts | 245° |
| 2026-05-07 22:46 | 50.94793 | 0.56687 | 7178 ft | 273 kts | 245° |
| 2026-05-07 22:47 | 50.93970 | 0.53973 | 6890 ft | 273 kts | 245° |
| 2026-05-07 22:47 | 50.93152 | 0.51274 | 6717 ft | 272 kts | 244° |
| 2026-05-07 22:47 | 50.92337 | 0.48576 | 6533 ft | 272 kts | 245° |
| 2026-05-07 22:47 | 50.91731 | 0.45741 | 6363 ft | 271 kts | 260° |
| 2026-05-07 22:48 | 50.91642 | 0.42769 | 6089 ft | 269 kts | 276° |
| 2026-05-07 22:48 | 50.91730 | 0.41780 | 6016 ft | 269 kts | 281° |
| 2026-05-07 22:50 | 50.92259 | 0.39736 | 6517 ft | 238 kts | 316° |
| 2026-05-07 22:50 | 50.93500 | 0.38650 | 8191 ft | 212 kts | 338° |
| 2026-05-07 22:50 | 50.94769 | 0.37580 | 7650 ft | 256 kts | 318° |
| 2026-05-07 22:50 | 50.95730 | 0.35127 | 6920 ft | 268 kts | 282° |
| 2026-05-07 22:51 | 50.95811 | 0.32121 | 6199 ft | 278 kts | 268° |
| 2026-05-07 22:51 | 50.95774 | 0.30111 | 5783 ft | 273 kts | 268° |
| 2026-05-07 22:53 | 50.95773 | 0.30054 | 5770 ft | 273 kts | 268° |
| 2026-05-07 22:53 | 50.95636 | 0.27532 | 4196 ft | 295 kts | 260° |
| 2026-05-07 22:53 | 50.95491 | 0.24487 | 3888 ft | 270 kts | 281° |
| 2026-05-07 22:53 | 50.96131 | 0.22005 | 3870 ft | 260 kts | 303° |
| 2026-05-07 22:54 | 50.97193 | 0.19710 | 3895 ft | 260 kts | 310° |
| 2026-05-07 22:54 | 50.98384 | 0.17540 | 3909 ft | 261 kts | 312° |
| 2026-05-07 22:54 | 50.99591 | 0.15392 | 3907 ft | 260 kts | 312° |
| 2026-05-07 22:54 | 51.00748 | 0.13209 | 4006 ft | 260 kts | 306° |
| 2026-05-07 22:55 | 51.01310 | 0.11696 | 4004 ft | 260 kts | 295° |
| 2026-05-07 22:55 | 51.01832 | 0.08957 | 3959 ft | 261 kts | 278° |
| 2026-05-07 22:55 | 51.01982 | 0.06078 | 3890 ft | 261 kts | 274° |
| 2026-05-07 22:55 | 51.02106 | 0.03208 | 3829 ft | 261 kts | 274° |
| 2026-05-07 22:56 | 51.02225 | 0.00329 | 3762 ft | 261 kts | 274° |
| 2026-05-07 22:56 | 51.02340 | -0.02550 | 3707 ft | 261 kts | 274° |
| 2026-05-07 22:56 | 51.02456 | -0.05423 | 3649 ft | 261 kts | 274° |
| 2026-05-07 22:56 | 51.02575 | -0.08300 | 3589 ft | 261 kts | 275° |
| 2026-05-07 22:57 | 51.02696 | -0.11167 | 3528 ft | 257 kts | 275° |
| 2026-05-07 22:57 | 51.02813 | -0.13917 | 3401 ft | 243 kts | 275° |
| 2026-05-07 22:57 | 51.02923 | -0.16526 | 3283 ft | 231 kts | 275° |
| 2026-05-07 22:57 | 51.03026 | -0.19012 | 3152 ft | 221 kts | 275° |
| 2026-05-07 22:58 | 51.03125 | -0.21397 | 3047 ft | 213 kts | 275° |
| 2026-05-07 22:58 | 51.03219 | -0.23712 | 3006 ft | 209 kts | 275° |
| 2026-05-07 22:58 | 51.03311 | -0.25987 | 2981 ft | 200 kts | 275° |
| 2026-05-07 22:58 | 51.03398 | -0.28150 | 2981 ft | 192 kts | 275° |
| 2026-05-07 22:59 | 51.03483 | -0.30243 | 2982 ft | 189 kts | 275° |
| 2026-05-07 22:59 | 51.03536 | -0.31516 | 2985 ft | 189 kts | 275° |
| 2026-05-07 22:59 | 51.03604 | -0.33104 | 2943 ft | 188 kts | 275° |
| 2026-05-07 22:59 | 51.03689 | -0.35173 | 2976 ft | 187 kts | 275° |
| 2026-05-07 23:00 | 51.03771 | -0.37212 | 2984 ft | 187 kts | 275° |
| 2026-05-07 23:00 | 51.03850 | -0.39219 | 2983 ft | 176 kts | 275° |
| 2026-05-07 23:00 | 51.03924 | -0.41115 | 2988 ft | 169 kts | 275° |
| 2026-05-07 23:00 | 51.03996 | -0.42973 | 2989 ft | 167 kts | 275° |
| 2026-05-07 23:01 | 51.04068 | -0.44807 | 2986 ft | 165 kts | 275° |
| 2026-05-07 23:01 | 51.04139 | -0.46593 | 2919 ft | 160 kts | 275° |
| 2026-05-07 23:01 | 51.04207 | -0.48339 | 2988 ft | 157 kts | 275° |
| 2026-05-07 23:01 | 51.04276 | -0.50065 | 2990 ft | 156 kts | 275° |
| 2026-05-07 23:02 | 51.04348 | -0.51795 | 2991 ft | 156 kts | 276° |
| 2026-05-07 23:02 | 51.04694 | -0.53388 | 2992 ft | 154 kts | 308° |
| 2026-05-07 23:02 | 51.05522 | -0.54426 | 2992 ft | 152 kts | 340° |
| 2026-05-07 23:02 | 51.06549 | -0.54605 | 2998 ft | 149 kts | 7° |
| 2026-05-07 23:03 | 51.07572 | -0.54408 | 2995 ft | 148 kts | 7° |
| 2026-05-07 23:03 | 51.08595 | -0.54198 | 2990 ft | 148 kts | 14° |
| 2026-05-07 23:03 | 51.09514 | -0.53504 | 2981 ft | 147 kts | 38° |
| 2026-05-07 23:03 | 51.10153 | -0.52286 | 2988 ft | 144 kts | 62° |
| 2026-05-07 23:04 | 51.10445 | -0.50766 | 2998 ft | 144 kts | 77° |
| 2026-05-07 23:04 | 51.10646 | -0.49204 | 2996 ft | 145 kts | 77° |
| 2026-05-07 23:04 | 51.10848 | -0.47629 | 2994 ft | 145 kts | 77° |
| 2026-05-07 23:04 | 51.11054 | -0.46065 | 2993 ft | 144 kts | 77° |
| 2026-05-07 23:05 | 51.11268 | -0.44503 | 2989 ft | 144 kts | 77° |
| 2026-05-07 23:05 | 51.11484 | -0.42945 | 2984 ft | 144 kts | 76° |
| 2026-05-07 23:05 | 51.11699 | -0.41401 | 2907 ft | 141 kts | 76° |
| 2026-05-07 23:05 | 51.11908 | -0.39907 | 2735 ft | 137 kts | 76° |
| 2026-05-07 23:06 | 51.12113 | -0.38440 | 2563 ft | 135 kts | 76° |
| 2026-05-07 23:06 | 51.12316 | -0.36990 | 2381 ft | 134 kts | 76° |
| 2026-05-07 23:06 | 51.12515 | -0.35567 | 2201 ft | 133 kts | 76° |
| 2026-05-07 23:06 | 51.12715 | -0.34134 | 2014 ft | 132 kts | 76° |
| 2026-05-07 23:07 | 51.12914 | -0.32714 | 1832 ft | 131 kts | 76° |
| 2026-05-07 23:07 | 51.13112 | -0.31292 | 1652 ft | 131 kts | 76° |
| 2026-05-07 23:07 | 51.13310 | -0.29875 | 1468 ft | 131 kts | 76° |
| 2026-05-07 23:07 | 51.13506 | -0.28461 | 1289 ft | 131 kts | 76° |
| 2026-05-07 23:08 | 51.13697 | -0.27092 | 1092 ft | 131 kts | 76° |
| 2026-05-07 23:08 | 51.13854 | -0.25960 | 929 ft | 130 kts | 76° |
| 2026-05-07 23:08 | 51.13984 | -0.25023 | 800 ft | 130 kts | 76° |
| 2026-05-07 23:08 | 51.14130 | -0.23996 | 666 ft | 130 kts | 76° |
| 2026-05-07 23:09 | 51.14312 | -0.22578 | 482 ft | 128 kts | 78° |
| 2026-05-07 23:09 | 51.14517 | -0.21200 | 350 ft | 128 kts | 77° |
| 2026-05-07 23:09 | 51.14705 | -0.19838 | 211 ft | 119 kts | 78° |
| 2026-05-07 23:09 | 51.14839 | -0.18849 | 206 ft | 50 kts | 78° |
| 2026-05-07 23:10 | 51.14880 | -0.18649 | 211 ft | 14 kts | 61° |
| 2026-05-07 23:10 | 51.15002 | -0.18396 | 210 ft | 33 kts | 50° |
| 2026-05-07 23:10 | 51.15098 | -0.18203 | 214 ft | 3 kts | 52° |
| 2026-05-07 23:10 | 51.15117 | -0.18189 | 211 ft | 7 kts | 8° |
| 2026-05-07 23:11 | 51.15188 | -0.18211 | 214 ft | 11 kts | 346° |
| 2026-05-07 23:11 | 51.15253 | -0.18235 | 210 ft | 9 kts | 347° |
| 2026-05-07 23:11 | 51.15310 | -0.18256 | 209 ft | 8 kts | 345° |
| 2026-05-07 23:11 | 51.15360 | -0.18274 | 206 ft | 7 kts | 349° |
| 2026-05-07 23:12 | 51.15406 | -0.18285 | 207 ft | 6 kts | 351° |
| 2026-05-07 23:12 | 51.15445 | -0.18297 | 208 ft | 5 kts | 346° |
| 2026-05-07 23:12 | 51.15479 | -0.18310 | 205 ft | 5 kts | 346° |
| 2026-05-07 23:12 | 51.15510 | -0.18323 | 212 ft | 4 kts | 346° |
| 2026-05-07 23:13 | 51.15566 | -0.18285 | 212 ft | 12 kts | 31° |
| 2026-05-07 23:13 | 51.15630 | -0.18240 | 207 ft | 8 kts | 11° |
| 2026-05-07 23:13 | 51.15669 | -0.18188 | 205 ft | 10 kts | 67° |
| 2026-05-07 23:13 | 51.15686 | -0.18063 | 205 ft | 13 kts | 79° |
| 2026-05-07 23:14 | 51.15708 | -0.17906 | 213 ft | 15 kts | 78° |
| 2026-05-07 23:14 | 51.15714 | -0.17867 | 207 ft | 0 kts | 78° |
| 2026-05-07 23:14 | 51.15722 | -0.17804 | 209 ft | 11 kts | 79° |
| 2026-05-07 23:14 | 51.15729 | -0.17750 | 205 ft | 4 kts | 77° |
| 2026-05-07 23:15 | 51.15748 | -0.17733 | 208 ft | 5 kts | 6° |
| 2026-05-07 23:15 | 51.15774 | -0.17742 | 205 ft | 4 kts | 348° |
| 2026-05-07 23:15 | 51.15790 | -0.17747 | 206 ft | 1 kts | 347° |
| 2026-05-07 23:15 | 51.15797 | -0.17749 | 214 ft | 1 kts | 348° |
| 2026-05-07 23:16 | 51.15802 | -0.17751 | 214 ft | 1 kts | 348° |
| 2026-05-07 23:16 | 51.15806 | -0.17752 | 213 ft | 0 kts | 348° |
| 2026-05-07 23:16 | 51.15808 | -0.17753 | 211 ft | 0 kts | 348° |